Latest Weather Observations for Cerberus

IDV60901

Issued at 11:11 pm EDT Sunday 19 November 2017 (issued every 10 minutes, with the page automatically refreshed every 10 minutes)

About weather observations | Map of Melbourne area stations | Latest observations for Melbourne area | Other Formats
Station Details ID: 086361 Name: CERBERUS Lat: -38.36 Lon: 145.18 Height: 12.69 m
Data from the previous 72 hours. | See also: Recent months at Cerberus
Date/Time
EDT
Temp
°C
App
Temp
°C
Dew
Point
°C
Rel
Hum
%
Delta-T
°C
Wind Press
QNH
hPa
Press
MSL
hPa
Rain since
9am
mm
Dir  Spd
km/h
Gust
km/h
Spd
kts
Gust
kts
19/11:00pm 15.8 16.7 12.9 83 1.6 CALM 0 2 0 1 1020.8 1020.7 0.0
19/10:30pm 16.1 17.0 12.8 81 1.8 CALM 0 0 0 0 1020.9 1020.8 0.0
19/10:00pm 17.0 18.0 13.3 79 2.1 CALM 0 0 0 0 1020.8 1020.7 0.0
19/09:30pm 17.7 18.7 13.2 75 2.5 CALM 0 0 0 0 1020.6 1020.5 0.0
19/09:00pm 18.5 19.0 12.7 69 3.2 SSE 2 4 1 2 1020.6 1020.5 0.0
19/08:30pm 19.7 19.6 13.2 66 3.7 SSE 6 9 3 5 1020.6 1020.5 0.0
19/08:00pm 20.9 21.0 13.8 64 4.1 ESE 6 11 3 6 1020.4 1020.3 0.0
19/07:30pm 21.6 21.4 14.7 65 4.1 ESE 9 13 5 7 1020.3 1020.2 0.0
19/07:00pm 22.6 21.2 12.3 52 5.8 SE 11 20 6 11 1020.4 1020.3 0.0
19/06:30pm 23.3 22.2 13.2 53 5.8 SSE 11 20 6 11 1020.4 1020.3 0.0
19/06:00pm 23.1 21.0 13.6 55 5.5 SSE 17 24 9 13 1020.3 1020.2 0.0
19/05:30pm 23.4 21.9 14.1 56 5.5 SSE 15 24 8 13 1020.3 1020.2 0.0
19/05:00pm 23.7 21.8 13.0 51 6.2 SSE 15 28 8 15 1020.3 1020.2 0.0
19/04:30pm 24.3 22.2 13.5 51 6.3 SSE 17 26 9 14 1020.3 1020.2 0.0
19/04:00pm 24.2 21.8 13.7 52 6.1 S 19 28 10 15 1020.5 1020.4 0.0
19/03:30pm 24.6 22.8 14.4 53 6.0 SSE 17 28 9 15 1020.8 1020.7 0.0
19/03:00pm 24.2 21.7 14.0 53 6.0 S 20 28 11 15 1020.9 1020.8 0.0
19/02:30pm 25.2 23.6 14.9 52 6.2 S 17 24 9 13 1021.0 1020.9 0.0
19/02:00pm 24.6 22.7 15.2 55 5.6 S 19 28 10 15 1021.0 1020.9 0.0
19/01:30pm 23.6 22.0 14.0 55 5.6 S 15 24 8 13 1021.0 1020.9 0.0
19/01:00pm 26.6 26.3 13.3 43 7.8 NE 7 19 4 10 1020.8 1020.7 0.0
19/12:30pm 26.1 26.0 14.9 50 6.7 ENE 9 17 5 9 1020.9 1020.8 0.0
19/12:00pm 25.6 25.5 15.0 52 6.4 ENE 9 15 5 8 1021.1 1021.0 0.0
19/11:30am 25.4 25.5 15.4 54 6.0 NE 9 17 5 9 1021.3 1021.2 0.0
19/11:00am 25.1 25.8 15.7 56 5.7 N 6 13 3 7 1021.3 1021.2 0.0
19/10:30am 24.2 24.8 15.7 59 5.1 NE 7 13 4 7 1021.3 1021.2 0.0
19/10:00am 22.9 23.6 15.5 63 4.4 E 6 9 3 5 1021.4 1021.3 0.0
19/09:30am 22.5 23.4 16.1 67 3.9 E 6 9 3 5 1021.2 1021.1 0.0
19/09:00am 20.7 21.8 16.7 78 2.4 ENE 6 9 3 5 1021.2 1021.1 0.0
19/08:30am 20.5 22.1 16.9 80 2.2 NW 4 6 2 3 1021.0 1020.9 0.0
19/08:00am 19.3 20.9 16.9 86 1.4 W 4 6 2 3 1020.6 1020.5 0.0
19/07:30am 17.9 20.1 16.6 92 0.8 CALM 0 0 0 0 1020.1 1020.0 0.0
19/07:00am 15.4 16.7 14.1 92 0.7 CALM 0 0 0 0 1019.9 1019.8 0.0
19/06:30am 13.3 13.5 11.9 91 0.7 W 2 4 1 2 1019.6 1019.5 0.0
19/06:00am 12.8 13.2 11.4 91 0.7 CALM 0 0 0 0 1019.2 1019.1 0.0
19/05:30am 12.9 13.4 11.5 91 0.7 CALM 0 2 0 1 1018.9 1018.8 0.0
19/05:00am 13.4 13.6 12.0 91 0.7 W 2 6 1 3 1018.7 1018.6 0.0
19/04:30am 12.9 12.9 11.3 90 0.8 W 2 4 1 2 1018.6 1018.5 0.0
19/04:00am 13.3 13.8 11.7 90 0.9 CALM 0 0 0 0 1018.6 1018.5 0.0
19/03:30am 13.9 14.6 12.3 90 0.9 CALM 0 0 0 0 1018.4 1018.3 0.0
19/03:00am 14.3 15.1 12.7 90 0.9 CALM 0 0 0 0 1018.4 1018.3 0.0
19/02:30am 13.3 13.4 11.5 89 1.0 W 2 4 1 2 1018.4 1018.3 0.0
19/02:00am 15.0 16.1 13.4 90 0.9 CALM 0 0 0 0 1018.4 1018.3 0.0
19/01:30am 14.5 15.3 12.7 89 1.0 CALM 0 0 0 0 1018.5 1018.4 0.0
19/01:00am 15.1 15.8 13.3 89 1.0 W 2 4 1 2 1018.4 1018.3 0.0
19/12:30am 15.9 17.2 14.1 89 1.0 CALM 0 2 0 1 1018.5 1018.4 0.0
19/12:00am 16.0 17.2 13.7 86 1.3 CALM 0 0 0 0 1018.3 1018.2 0.0
 
Date/Time
EDT
Temp
°C
App
Temp
°C
Dew
Point
°C
Rel
Hum
%
Delta-T
°C
Wind Press
QNH
hPa
Press
MSL
hPa
Rain since
9am
mm
Dir  Spd
km/h
Gust
km/h
Spd
kts
Gust
kts
18/11:30pm 16.5 17.8 14.2 86 1.3 CALM 0 2 0 1 1018.3 1018.2 0.0
18/11:00pm 17.4 19.0 15.0 86 1.4 CALM 0 2 0 1 1018.0 1017.9 0.0
18/10:30pm 17.4 18.5 14.7 84 1.6 SSE 2 6 1 3 1018.0 1017.9 0.0
18/10:00pm 18.3 20.0 15.2 82 1.8 CALM 0 0 0 0 1017.7 1017.6 0.0
18/09:30pm 18.9 20.7 15.4 80 2.1 CALM 0 2 0 1 1017.4 1017.3 0.0
18/09:00pm 19.6 20.7 15.5 77 2.4 SSE 4 6 2 3 1017.2 1017.1 0.0
18/08:30pm 21.5 22.0 14.9 66 3.9 SSE 6 6 3 3 1016.9 1016.8 0.0
18/08:00pm 22.7 23.7 15.3 63 4.4 SSE 4 6 2 3 1016.6 1016.5 0.0
18/07:30pm 24.1 24.2 13.9 53 6.0 SE 6 7 3 4 1016.4 1016.3 0.0
18/07:00pm 23.2 23.8 15.3 61 4.7 NNE 6 9 3 5 1016.4 1016.3 0.0
18/06:30pm 23.4 23.8 16.2 64 4.4 ESE 9 17 5 9 1016.3 1016.2 0.0
18/06:00pm 24.7 24.1 14.5 53 6.1 ESE 11 19 6 10 1016.0 1015.9 0.0
18/05:30pm 25.7 23.6 13.5 46 7.2 SE 17 28 9 15 1015.6 1015.5 0.0
18/05:00pm 25.9 23.6 14.1 48 7.0 SE 19 30 10 16 1015.3 1015.2 0.0
18/04:30pm 25.7 22.6 12.2 43 7.8 SE 20 32 11 17 1015.4 1015.3 0.0
18/04:00pm 26.2 23.9 13.0 44 7.7 SE 17 28 9 15 1015.4 1015.3 0.0
18/03:30pm 25.6 24.5 14.4 50 6.7 SE 13 24 7 13 1015.6 1015.5 0.0
18/03:00pm 26.5 25.5 15.5 50 6.7 SSE 15 22 8 12 1015.7 1015.6 0.0
18/02:30pm 27.1 26.6 13.8 44 7.9 SE 9 15 5 8 1016.0 1015.9 0.0
18/02:00pm 26.9 25.8 14.3 46 7.5 S 13 24 7 13 1016.2 1016.1 0.0
18/01:30pm 26.4 27.0 16.9 56 5.9 SW 9 17 5 9 1016.5 1016.4 0.0
18/01:00pm 26.6 26.5 14.0 46 7.5 E 7 15 4 8 1016.8 1016.7 0.0
18/12:30pm 25.8 25.1 11.9 42 7.9 E 7 15 4 8 1016.9 1016.8 0.0
18/12:00pm 25.2 25.1 14.0 49 6.6 ESE 7 11 4 6 1016.8 1016.7 0.0
18/11:30am 24.9 24.6 14.4 52 6.2 SE 9 15 5 8 1016.9 1016.8 0.0
18/11:00am 23.8 24.1 16.1 62 4.7 SE 9 15 5 8 1016.8 1016.7 0.0
18/10:30am 23.1 24.2 16.6 67 4.0 NE 6 13 3 7 1017.0 1016.9 0.0
18/10:00am 21.6 22.2 15.7 69 3.5 NE 7 13 4 7 1017.0 1016.9 0.0
18/09:30am 20.8 21.2 16.2 75 2.8 NE 9 17 5 9 1017.1 1017.0 0.0
18/09:00am 19.6 20.1 15.5 77 2.4 NNE 7 13 4 7 1017.1 1017.0 4.2
18/08:30am 18.7 18.8 15.6 82 1.8 NE 9 13 5 7 1016.9 1016.8 4.2
18/08:00am 18.2 19.1 16.0 87 1.3 NE 6 13 3 7 1016.7 1016.6 4.2
18/07:30am 17.4 18.2 15.9 91 0.9 ENE 6 9 3 5 1016.4 1016.3 4.2
18/07:00am 15.8 16.2 14.7 93 0.6 NE 6 9 3 5 1016.3 1016.2 4.2
18/06:30am 13.2 13.1 12.1 93 0.6 NE 4 6 2 3 1016.0 1015.9 4.2
18/06:00am 13.2 13.0 11.9 92 0.7 NE 4 4 2 2 1015.5 1015.4 4.2
18/05:30am 13.8 14.6 12.5 92 0.7 CALM 0 4 0 2 1015.3 1015.2 4.2
18/05:00am 14.1 15.0 12.8 92 0.7 CALM 0 0 0 0 1015.5 1015.4 4.2
18/04:30am 14.0 14.8 12.7 92 0.7 CALM 0 0 0 0 1014.9 1014.8 4.2
18/04:00am 14.3 14.9 13.0 92 0.7 SE 2 6 1 3 1014.5 1014.4 4.2
18/03:30am 14.2 14.4 12.9 92 0.7 SE 4 7 2 4 1014.3 1014.2 4.2
18/03:00am 14.1 14.9 12.7 91 0.8 CALM 0 6 0 3 1014.6 1014.5 4.2
18/02:30am 14.0 14.4 12.6 91 0.8 SE 2 6 1 3 1014.7 1014.6 4.2
18/02:00am 13.8 14.6 12.4 91 0.8 CALM 0 0 0 0 1014.3 1014.2 4.2
18/01:30am 14.4 15.0 13.0 91 0.8 SE 2 4 1 2 1014.2 1014.1 4.2
18/01:00am 14.6 14.8 13.0 90 0.9 SE 4 6 2 3 1014.0 1013.9 4.2
18/12:30am 14.4 14.4 12.4 88 1.1 SE 4 6 2 3 1014.1 1014.0 4.0
18/12:00am 14.8 14.9 12.8 88 1.1 SE 4 4 2 2 1014.1 1014.0 4.0
 
Date/Time
EDT
Temp
°C
App
Temp
°C
Dew
Point
°C
Rel
Hum
%
Delta-T
°C
Wind Press
QNH
hPa
Press
MSL
hPa
Rain since
9am
mm
Dir  Spd
km/h
Gust
km/h
Spd
kts
Gust
kts
17/11:30pm 15.4 16.4 13.2 87 1.2 CALM 0 0 0 0 1014.0 1013.9 4.0
17/11:00pm 15.9 16.4 13.9 88 1.1 SE 4 7 2 4 1014.1 1014.0 4.0
17/10:30pm 15.8 16.2 13.8 88 1.1 SW 4 6 2 3 1013.9 1013.8 4.0
17/10:00pm 16.1 16.3 14.1 88 1.1 SW 6 7 3 4 1013.3 1013.3 4.0
17/09:30pm 16.5 17.8 14.0 85 1.4 CALM 0 0 0 0 1013.2 1013.2 4.0
17/09:00pm 16.9 17.4 14.0 83 1.6 E 4 7 2 4 1013.3 1013.3 4.0
17/08:30pm 18.2 19.3 14.5 79 2.1 E 2 2 1 1 1013.1 1013.1 4.0
17/08:00pm 19.3 20.1 14.8 75 2.6 NNE 4 6 2 3 1013.0 1013.0 4.0
17/07:30pm 20.1 21.5 14.5 70 3.3 CALM 0 2 0 1 1012.9 1012.9 4.0
17/07:00pm 20.5 21.4 13.9 66 3.8 NNE 2 4 1 2 1012.3 1012.3 4.0
17/06:30pm 21.0 20.9 13.4 62 4.4 ESE 6 9 3 5 1012.5 1012.5 4.0
17/06:00pm 21.8 21.6 13.7 60 4.7 SE 7 15 4 8 1012.3 1012.3 4.0
17/05:30pm 21.3 20.8 13.7 62 4.4 ESE 9 13 5 7 1012.7 1012.7 4.0
17/05:00pm 20.3 21.9 15.9 76 2.6 SSE 2 6 1 3 1013.2 1013.2 4.0
17/04:30pm 20.5 21.1 14.2 67 3.7 SSE 4 9 2 5 1013.6 1013.5 4.0
17/04:00pm 20.7 19.8 14.8 69 3.5 S 13 26 7 14 1013.3 1013.3 4.0
17/03:30pm 20.7 20.4 13.4 63 4.2 S 7 11 4 6 1013.6 1013.5 4.0
17/03:00pm 19.1 18.6 13.7 71 3.1 SW 9 15 5 8 1013.0 1013.0 4.0
17/02:30pm 16.6 16.5 13.9 84 1.5 WNW 7 15 4 8 1013.8 1013.7 4.0
17/02:00pm 18.1 15.6 13.6 75 2.6 WNW 19 28 10 15 1013.9 1013.8 0.2
17/01:30pm 22.9 22.4 16.0 65 4.2 WSW 13 19 7 10 1012.7 1012.7 0.0
17/01:00pm 24.7 24.4 16.4 60 5.1 SSW 13 20 7 11 1012.6 1012.6 0.0
17/12:30pm 24.1 23.3 13.9 53 6.0 SSE 11 19 6 10 1013.2 1013.2 0.0
17/12:00pm 23.8 22.7 13.1 51 6.2 ESE 11 15 6 8 1013.7 1013.6 0.0
17/11:30am 23.4 23.1 14.4 57 5.3 SE 9 17 5 9 1014.0 1013.9 0.0
17/11:00am 22.6 22.9 14.4 60 4.8 ESE 6 9 3 5 1014.2 1014.1 0.0
17/10:30am 22.4 23.1 15.5 65 4.1 ESE 6 9 3 5 1014.3 1014.2 0.0
17/10:00am 21.5 22.0 15.1 67 3.8 ESE 6 7 3 4 1014.0 1013.9 0.0
17/09:30am 20.5 21.1 15.3 72 3.1 NE 6 11 3 6 1014.0 1013.9 0.0
17/09:00am 19.1 19.7 15.2 78 2.3 NE 6 7 3 4 1014.1 1014.0 10.8
17/08:30am 18.4 18.9 15.6 84 1.6 E 7 11 4 6 1014.0 1013.9 10.8
17/08:00am 17.4 19.0 15.9 91 0.9 E 2 7 1 4 1013.7 1013.6 10.8
17/07:30am 16.1 17.7 15.0 93 0.6 CALM 0 0 0 0 1013.4 1013.4 10.8
17/07:00am 14.5 15.2 13.4 93 0.6 S 2 4 1 2 1013.2 1013.2 10.8
17/06:30am 13.7 14.5 12.4 92 0.7 CALM 0 2 0 1 1012.9 1012.9 10.8
17/06:00am 13.9 14.7 12.6 92 0.7 CALM 0 0 0 0 1012.5 1012.5 10.8
17/05:30am 13.9 14.7 12.6 92 0.7 CALM 0 0 0 0 1012.5 1012.5 10.8
17/05:00am 14.4 15.4 13.1 92 0.7 CALM 0 0 0 0 1012.3 1012.3 10.8
17/04:30am 14.1 14.9 12.7 91 0.8 CALM 0 0 0 0 1012.2 1012.2 10.8
17/04:00am 14.5 15.4 13.0 91 0.8 CALM 0 2 0 1 1012.4 1012.4 10.8
17/03:30am 14.9 15.2 13.4 91 0.8 SSE 4 4 2 2 1012.2 1012.2 10.8
17/03:00am 15.5 16.4 14.0 91 0.8 SE 2 4 1 2 1012.3 1012.3 10.8
17/02:30am 16.3 17.4 14.7 90 0.9 SE 2 6 1 3 1012.3 1012.3 10.6
17/02:00am 16.9 17.5 15.2 90 1.0 SE 6 9 3 5 1012.5 1012.5 10.6
17/01:30am 16.6 17.1 15.0 90 0.9 E 6 9 3 5 1012.9 1012.9 10.6
17/01:00am 16.8 17.9 15.5 92 0.8 SE 4 7 2 4 1012.8 1012.8 10.6
17/12:30am 16.8 17.8 15.3 91 0.9 SE 4 6 2 3 1012.8 1012.8 10.6
17/12:00am 16.5 16.8 15.0 91 0.9 SSE 7 13 4 7 1012.7 1012.7 10.6
 
Date/Time
EDT
Temp
°C
App
Temp
°C
Dew
Point
°C
Rel
Hum
%
Delta-T
°C
Wind Press
QNH
hPa
Press
MSL
hPa
Rain since
9am
mm
Dir  Spd
km/h
Gust
km/h
Spd
kts
Gust
kts
16/11:30pm 16.3 16.7 14.7 90 0.9 SSE 6 9 3 5 1012.6 1012.6 10.6

Latest Capital City Observations: Canberra | Sydney | Melbourne | Brisbane | Adelaide | Perth | Hobart | Darwin

Other Formats:

Comma delimited format used in spreadsheet applications
http://www.bom.gov.au/fwo/IDV60901/IDV60901.94898.axf

JavaScript Object Notation format (JSON) in row-major order
http://www.bom.gov.au/fwo/IDV60901/IDV60901.94898.json